Time;durP1;ratioP1;P1;durP2;ratioP2;P2;SDS_P1;SDS_P2;PMS_P1;PMS_P2;Temp;Humidity;BMP_temperature;BMP_pressure;BME280_temperature;BME280_humidity;BME280_pressure;Samples;Min_cycle;Max_cycle;Signal;HPM_P1;HPM_P2
2023/11/01 00:01:00;;;;;;;;;;;;;;;;;;5091635;27;19923;-74
2023/11/01 00:03:26;;;;;;;;;;;;;;;;;;5091479;28;20355;-75
2023/11/01 00:05:52;;;;;;;;;;;;;;;;;;5090970;28;19912;-75
2023/11/01 00:08:18;;;;;;;;;;;;;;;;;;5091380;28;20028;-75
2023/11/01 00:10:44;;;;;;;;;;;;;;;;;;5091183;28;19916;-74
2023/11/01 00:14:27;;;;;;;;;;;;;;;;;;5092032;27;19917;-75
2023/11/01 00:16:53;;;;;;;;;;;;;;;;;;5091403;28;20023;-75
2023/11/01 00:19:19;;;;;;;;;;;;;;;;;;5090962;28;19912;-75
2023/11/01 00:21:45;;;;;;;;;;;;;;;;;;5091300;28;19987;-75
2023/11/01 00:24:48;;;;;;;;;;;;;;;;;;5132185;27;20006;-75
2023/11/01 00:29:18;;;;;;;;;;;;;;;;;;5112525;27;19918;-75
2023/11/01 00:33:27;;;;;;;;;;;;;;;;;;5111450;27;20292;-75
2023/11/01 00:35:53;;;;;;;;;;;;;;;;;;5111749;28;19918;-76
2023/11/01 00:38:20;;;;;;;;;;;;;;;;;;5111632;28;19908;-76
2023/11/01 00:41:50;;;;;;;;;;;;;;;;;;5092027;27;19923;-75
2023/11/01 00:44:16;;;;;;;;;;;;;;;;;;5091372;28;20003;-75
2023/11/01 00:46:42;;;;;;;;;;;;;;;;;;5090949;28;19930;-74
2023/11/01 00:50:33;;;;;;;;;;;;;;;;;;5092024;27;20296;-75
2023/11/01 00:52:59;;;;;;;;;;;;;;;;;;5091510;28;20002;-75
2023/11/01 00:55:51;;;;;;;;;;;;;;;;;;5153300;27;20002;-74
2023/11/01 00:58:52;;;;;;;;;;;;;;;;;;5092252;27;20387;-75
2023/11/01 01:01:18;;;;;;;;;;;;;;;;;;5090929;28;19955;-75
2023/11/01 01:03:44;;;;;;;;;;;;;;;;;;5091298;28;19909;-75
2023/11/01 01:06:10;;;;;;;;;;;;;;;;;;5090005;28;19961;-75
2023/11/01 01:08:35;;;;;;;;;;;;;;;;;;5090902;28;19915;-75
2023/11/01 01:11:01;;;;;;;;;;;;;;;;;;5091223;28;19912;-75
2023/11/01 01:13:46;;;;;;;;;;;;;;;;;;5153550;27;20340;-75
2023/11/01 01:16:12;;;;;;;;;;;;;;;;;;5152532;27;20002;-75
2023/11/01 01:19:23;;;;;;;;;;;;;;;;;;5091420;27;19935;-74
2023/11/01 01:23:08;;;;;;;;;;;;;;;;;;5111485;27;19916;-75
2023/11/01 01:27:47;;;;;;;;;;;;;;;;;;5091685;27;19923;-76
2023/11/01 01:30:13;;;;;;;;;;;;;;;;;;5091001;28;20356;-75
2023/11/01 01:34:01;;;;;;;;;;;;;;;;;;5091589;27;19912;-76
2023/11/01 01:36:27;;;;;;;;;;;;;;;;;;5090960;28;19995;-76
2023/11/01 01:40:16;;;;;;;;;;;;;;;;;;5111779;27;19916;-75
2023/11/01 01:42:42;;;;;;;;;;;;;;;;;;5111571;28;20344;-75
2023/11/01 01:45:08;;;;;;;;;;;;;;;;;;5111674;28;19953;-75
2023/11/01 01:47:34;;;;;;;;;;;;;;;;;;5111654;28;19961;-75
2023/11/01 01:50:00;;;;;;;;;;;;;;;;;;5109989;28;19908;-75
2023/11/01 01:52:26;;;;;;;;;;;;;;;;;;5111606;28;19954;-76
2023/11/01 01:54:53;;;;;;;;;;;;;;;;;;5111438;28;19908;-75
2023/11/01 02:00:22;;;;;;;;;;;;;;;;;;5112250;27;20383;-76
2023/11/01 02:02:48;;;;;;;;;;;;;;;;;;5111761;28;19918;-75
2023/11/01 02:05:45;;;;;;;;;;;;;;;;;;5112474;27;19922;-75
2023/11/01 02:09:05;;;;;;;;;;;;;;;;;;5112370;27;19916;-75
2023/11/01 02:11:31;;;;;;;;;;;;;;;;;;5111451;28;20019;-74
2023/11/01 02:13:57;;;;;;;;;;;;;;;;;;5111987;28;19950;-74
2023/11/01 02:16:23;;;;;;;;;;;;;;;;;;5111924;28;19908;-75
2023/11/01 02:18:49;;;;;;;;;;;;;;;;;;5111363;28;19914;-75
2023/11/01 02:21:15;;;;;;;;;;;;;;;;;;5111841;28;19912;-75
2023/11/01 02:23:41;;;;;;;;;;;;;;;;;;5111651;28;19908;-75
2023/11/01 02:26:07;;;;;;;;;;;;;;;;;;5111178;28;19953;-75
2023/11/01 02:31:04;;;;;;;;;;;;;;;;;;5112044;27;20298;-75
2023/11/01 02:33:30;;;;;;;;;;;;;;;;;;5111401;28;19950;-75
2023/11/01 02:35:56;;;;;;;;;;;;;;;;;;5111897;28;19912;-75
2023/11/01 02:38:22;;;;;;;;;;;;;;;;;;5111258;28;19954;-75
2023/11/01 02:40:48;;;;;;;;;;;;;;;;;;5111612;28;19908;-75
2023/11/01 02:43:14;;;;;;;;;;;;;;;;;;5111620;28;19915;-75
2023/11/01 02:45:40;;;;;;;;;;;;;;;;;;5111392;28;19942;-75
2023/11/01 02:48:06;;;;;;;;;;;;;;;;;;5111844;28;19966;-75
2023/11/01 02:50:32;;;;;;;;;;;;;;;;;;5111308;28;19920;-75
2023/11/01 02:52:58;;;;;;;;;;;;;;;;;;5111170;28;19974;-75
2023/11/01 02:55:24;;;;;;;;;;;;;;;;;;5111364;28;19908;-75
2023/11/01 02:57:50;;;;;;;;;;;;;;;;;;5109997;28;19938;-75
2023/11/01 03:00:19;;;;;;;;;;;;;;;;;;5110754;28;19908;-75
2023/11/01 03:02:48;;;;;;;;;;;;;;;;;;5111747;28;19954;-75
2023/11/01 03:05:14;;;;;;;;;;;;;;;;;;5111704;28;20351;-75
2023/11/01 03:07:41;;;;;;;;;;;;;;;;;;5110696;28;19908;-76
2023/11/01 03:10:07;;;;;;;;;;;;;;;;;;5111113;28;19916;-76
2023/11/01 03:12:33;;;;;;;;;;;;;;;;;;5109739;28;20364;-75
2023/11/01 03:14:59;;;;;;;;;;;;;;;;;;5110621;28;19915;-76
2023/11/01 03:17:24;;;;;;;;;;;;;;;;;;5110945;28;19915;-76
2023/11/01 03:19:50;;;;;;;;;;;;;;;;;;5110809;28;20018;-76
2023/11/01 03:22:18;;;;;;;;;;;;;;;;;;5110467;28;19908;-76
2023/11/01 03:24:44;;;;;;;;;;;;;;;;;;5110683;28;19908;-75
2023/11/01 03:27:10;;;;;;;;;;;;;;;;;;5110818;28;19914;-75
2023/11/01 03:29:36;;;;;;;;;;;;;;;;;;5110039;28;19920;-76
2023/11/01 03:32:03;;;;;;;;;;;;;;;;;;5110839;28;19912;-76
2023/11/01 03:34:28;;;;;;;;;;;;;;;;;;5110784;28;19908;-76
2023/11/01 03:36:54;;;;;;;;;;;;;;;;;;5110196;28;19962;-76
2023/11/01 03:39:20;;;;;;;;;;;;;;;;;;5110894;28;19961;-77
2023/11/01 03:41:46;;;;;;;;;;;;;;;;;;5100237;28;19908;-77
2023/11/01 03:44:12;;;;;;;;;;;;;;;;;;5097054;28;20019;-77
2023/11/01 03:46:38;;;;;;;;;;;;;;;;;;5096958;28;19908;-77
2023/11/01 03:49:04;;;;;;;;;;;;;;;;;;5096456;28;19918;-77
2023/11/01 03:51:30;;;;;;;;;;;;;;;;;;5096872;28;20283;-77
2023/11/01 03:53:56;;;;;;;;;;;;;;;;;;5097213;28;20300;-76
2023/11/01 03:56:22;;;;;;;;;;;;;;;;;;5096513;28;19912;-76
2023/11/01 03:58:48;;;;;;;;;;;;;;;;;;5096714;28;19914;-77
2023/11/01 04:01:14;;;;;;;;;;;;;;;;;;5096636;28;19915;-77
2023/11/01 04:03:40;;;;;;;;;;;;;;;;;;5094885;28;19911;-77
2023/11/01 04:06:06;;;;;;;;;;;;;;;;;;5096440;28;19908;-78
2023/11/01 04:08:32;;;;;;;;;;;;;;;;;;5095300;28;19994;-77
2023/11/01 04:10:58;;;;;;;;;;;;;;;;;;5096053;28;20348;-78
2023/11/01 04:13:24;;;;;;;;;;;;;;;;;;5096349;28;20288;-77
2023/11/01 04:15:50;;;;;;;;;;;;;;;;;;5096310;28;19935;-77
2023/11/01 04:18:16;;;;;;;;;;;;;;;;;;5095882;28;19908;-77
2023/11/01 04:20:42;;;;;;;;;;;;;;;;;;5096192;28;20407;-77
2023/11/01 04:23:09;;;;;;;;;;;;;;;;;;5096294;28;19908;-78
2023/11/01 04:25:35;;;;;;;;;;;;;;;;;;5095841;28;19915;-77
2023/11/01 04:28:01;;;;;;;;;;;;;;;;;;5095981;28;19908;-77
2023/11/01 04:30:37;;;;;;;;;;;;;;;;;;5095688;28;19920;-77
2023/11/01 04:33:03;;;;;;;;;;;;;;;;;;5094404;28;19914;-78
2023/11/01 04:35:29;;;;;;;;;;;;;;;;;;5095945;28;19994;-77
2023/11/01 04:37:55;;;;;;;;;;;;;;;;;;5095546;28;19908;-75
2023/11/01 04:40:21;;;;;;;;;;;;;;;;;;5095732;28;19915;-78
2023/11/01 04:42:47;;;;;;;;;;;;;;;;;;5095870;28;20309;-77
2023/11/01 04:45:13;;;;;;;;;;;;;;;;;;5095363;28;19923;-77
2023/11/01 04:47:42;;;;;;;;;;;;;;;;;;5095577;28;19908;-77
2023/11/01 04:50:11;;;;;;;;;;;;;;;;;;5094252;28;19916;-77
2023/11/01 04:52:37;;;;;;;;;;;;;;;;;;5094160;28;19908;-76
2023/11/01 04:55:04;;;;;;;;;;;;;;;;;;5094223;28;19919;-77
2023/11/01 04:57:30;;;;;;;;;;;;;;;;;;5095458;28;19994;-77
2023/11/01 04:59:56;;;;;;;;;;;;;;;;;;5095022;28;19908;-77
2023/11/01 05:02:22;;;;;;;;;;;;;;;;;;5095417;28;20421;-77
2023/11/01 05:04:48;;;;;;;;;;;;;;;;;;5095277;28;19931;-77
2023/11/01 05:07:14;;;;;;;;;;;;;;;;;;5094707;28;19912;-77
2023/11/01 05:09:40;;;;;;;;;;;;;;;;;;5095109;28;19916;-77
2023/11/01 05:12:06;;;;;;;;;;;;;;;;;;5095112;28;19923;-77
2023/11/01 05:14:32;;;;;;;;;;;;;;;;;;5093379;28;19999;-77
2023/11/01 05:16:57;;;;;;;;;;;;;;;;;;5093716;28;19908;-77
2023/11/01 05:19:23;;;;;;;;;;;;;;;;;;5095029;28;19912;-77
2023/11/01 05:21:49;;;;;;;;;;;;;;;;;;5093295;28;19908;-77
2023/11/01 05:24:15;;;;;;;;;;;;;;;;;;5095051;28;19908;-77
2023/11/01 05:26:42;;;;;;;;;;;;;;;;;;5094829;28;19995;-77
2023/11/01 05:29:08;;;;;;;;;;;;;;;;;;5092799;28;19920;-77
2023/11/01 05:31:34;;;;;;;;;;;;;;;;;;5094778;28;19909;-76
2023/11/01 05:34:00;;;;;;;;;;;;;;;;;;5095000;28;20303;-77
2023/11/01 05:36:29;;;;;;;;;;;;;;;;;;5093000;28;19908;-76
2023/11/01 05:38:55;;;;;;;;;;;;;;;;;;5094819;28;19999;-77
2023/11/01 05:41:21;;;;;;;;;;;;;;;;;;5094264;28;19952;-77
2023/11/01 05:43:47;;;;;;;;;;;;;;;;;;5094783;28;20398;-76
2023/11/01 05:46:13;;;;;;;;;;;;;;;;;;5094537;28;20006;-76
2023/11/01 05:48:40;;;;;;;;;;;;;;;;;;5094036;28;19991;-76
2023/11/01 05:51:06;;;;;;;;;;;;;;;;;;5093215;28;19908;-76
2023/11/01 05:53:31;;;;;;;;;;;;;;;;;;5094803;28;20326;-76
2023/11/01 05:55:58;;;;;;;;;;;;;;;;;;5094002;28;19908;-76
2023/11/01 05:58:24;;;;;;;;;;;;;;;;;;5094413;28;19912;-76
2023/11/01 06:00:50;;;;;;;;;;;;;;;;;;5094381;28;20257;-75
2023/11/01 06:03:16;;;;;;;;;;;;;;;;;;5092604;28;20314;-75
2023/11/01 06:05:42;;;;;;;;;;;;;;;;;;5094114;28;19935;-76
2023/11/01 06:08:11;;;;;;;;;;;;;;;;;;5091858;28;19909;-76
2023/11/01 06:10:36;;;;;;;;;;;;;;;;;;5093864;28;19938;-75
2023/11/01 06:13:02;;;;;;;;;;;;;;;;;;5094484;28;20360;-74
2023/11/01 06:15:28;;;;;;;;;;;;;;;;;;5094026;28;20569;-75
2023/11/01 06:17:56;;;;;;;;;;;;;;;;;;5093663;28;19908;-75
2023/11/01 06:20:22;;;;;;;;;;;;;;;;;;5093846;28;19908;-75
2023/11/01 06:22:48;;;;;;;;;;;;;;;;;;5096994;28;19907;-75
2023/11/01 06:25:16;;;;;;;;;;;;;;;;;;5091860;28;20011;-74
2023/11/01 06:27:42;;;;;;;;;;;;;;;;;;5087574;28;19989;-75
2023/11/01 06:30:08;;;;;;;;;;;;;;;;;;5090736;28;20368;-74
2023/11/01 06:32:37;;;;;;;;;;;;;;;;;;5090578;28;19908;-74
2023/11/01 06:35:03;;;;;;;;;;;;;;;;;;5090901;28;20018;-75
2023/11/01 06:37:29;;;;;;;;;;;;;;;;;;5089681;28;19912;-73
2023/11/01 06:39:55;;;;;;;;;;;;;;;;;;5089609;28;19914;-71
2023/11/01 06:42:21;;;;;;;;;;;;;;;;;;5090133;28;19912;-75
2023/11/01 06:45:10;;;;;;;;;;;;;;;;;;5087029;27;19917;-72
2023/11/01 06:47:36;;;;;;;;;;;;;;;;;;5076922;28;19916;-72
2023/11/01 06:50:11;;;;;;;;;;;;;;;;;;5068796;28;19954;-73
2023/11/01 06:52:39;;;;;;;;;;;;;;;;;;5068040;28;19912;-73
2023/11/01 06:56:50;;;;;;;;;;;;;;;;;;4816867;27;8353990;-72
2023/11/01 06:59:16;;;;;;;;;;;;;;;;;;5108878;28;20261;-72
2023/11/01 07:01:46;;;;;;;;;;;;;;;;;;5128205;28;19911;-71
2023/11/01 07:04:25;;;;;;;;;;;;;;;;;;5109985;27;19942;-72
2023/11/01 07:07:03;;;;;;;;;;;;;;;;;;5098355;28;20376;-68
2023/11/01 07:09:29;;;;;;;;;;;;;;;;;;5098207;28;19915;-69
2023/11/01 07:14:41;;;;;;;;;;;;;;;;;;5087136;27;20373;-70
2023/11/01 07:17:07;;;;;;;;;;;;;;;;;;5085158;28;19913;-72
2023/11/01 07:19:33;;;;;;;;;;;;;;;;;;5087081;28;19931;-73
2023/11/01 07:21:59;;;;;;;;;;;;;;;;;;5072394;28;19966;-72
2023/11/01 07:27:07;;;;;;;;;;;;;;;;;;5089000;27;20330;-71
2023/11/01 07:29:33;;;;;;;;;;;;;;;;;;5080867;28;19919;-69
2023/11/01 07:31:59;;;;;;;;;;;;;;;;;;5083228;28;19965;-69
2023/11/01 07:37:34;;;;;;;;;;;;;;;;;;5108475;27;19989;-72
2023/11/01 07:40:00;;;;;;;;;;;;;;;;;;5109484;28;20441;-74
2023/11/01 07:46:18;;;;;;;;;;;;;;;;;;5039423;28;20296;-72
2023/11/01 07:48:44;;;;;;;;;;;;;;;;;;5052629;28;19913;-74
2023/11/01 07:51:12;;;;;;;;;;;;;;;;;;5030186;28;20246;-71
2023/11/01 07:56:10;;;;;;;;;;;;;;;;;;5141855;27;19973;-69
2023/11/01 08:06:52;;;;;;;;;;;;;;;;;;5090002;27;19921;-74
2023/11/01 08:09:17;;;;;;;;;;;;;;;;;;5070106;28;19917;-72
2023/11/01 08:11:44;;;;;;;;;;;;;;;;;;5069337;28;19962;-72
2023/11/01 08:14:10;;;;;;;;;;;;;;;;;;5069187;28;20442;-71
2023/11/01 08:16:36;;;;;;;;;;;;;;;;;;5067935;28;19913;-72
2023/11/01 08:19:02;;;;;;;;;;;;;;;;;;5069741;28;19908;-75
2023/11/01 08:23:01;;;;;;;;;;;;;;;;;;5110959;27;19919;-72
2023/11/01 08:25:30;;;;;;;;;;;;;;;;;;5111027;28;19912;-77
2023/11/01 08:30:11;;;;;;;;;;;;;;;;;;5088372;27;19916;-72
2023/11/01 08:34:31;;;;;;;;;;;;;;;;;;5088824;27;19917;-75
2023/11/01 08:36:57;;;;;;;;;;;;;;;;;;5089249;28;19919;-78
2023/11/01 08:40:39;;;;;;;;;;;;;;;;;;5089912;27;19912;-74
2023/11/01 08:43:05;;;;;;;;;;;;;;;;;;5090480;28;20345;-73
2023/11/01 08:46:44;;;;;;;;;;;;;;;;;;5148499;27;20019;-73
2023/11/01 08:49:13;;;;;;;;;;;;;;;;;;5131534;28;20011;-71
2023/11/01 08:51:39;;;;;;;;;;;;;;;;;;5129465;28;19978;-71
2023/11/01 08:54:05;;;;;;;;;;;;;;;;;;5122679;28;19959;-71
2023/11/01 08:56:31;;;;;;;;;;;;;;;;;;5112122;28;20016;-73
2023/11/01 08:58:57;;;;;;;;;;;;;;;;;;5119347;28;19916;-73
2023/11/01 09:01:24;;;;;;;;;;;;;;;;;;5128315;28;19956;-71
2023/11/01 09:03:50;;;;;;;;;;;;;;;;;;5130285;28;19908;-71
2023/11/01 09:06:16;;;;;;;;;;;;;;;;;;5129426;28;19958;-73
2023/11/01 09:08:42;;;;;;;;;;;;;;;;;;5129411;28;19955;-71
2023/11/01 09:11:09;;;;;;;;;;;;;;;;;;5129179;28;19908;-70
2023/11/01 09:13:35;;;;;;;;;;;;;;;;;;5128141;28;19918;-70
2023/11/01 09:16:01;;;;;;;;;;;;;;;;;;5130539;28;20288;-69
2023/11/01 09:18:27;;;;;;;;;;;;;;;;;;5130672;28;20375;-70
2023/11/01 09:20:53;;;;;;;;;;;;;;;;;;5130242;28;20424;-70
2023/11/01 09:23:19;;;;;;;;;;;;;;;;;;5128682;28;19975;-71
2023/11/01 09:25:45;;;;;;;;;;;;;;;;;;5128491;28;19923;-71
2023/11/01 09:28:11;;;;;;;;;;;;;;;;;;5127883;28;19908;-69
2023/11/01 09:30:37;;;;;;;;;;;;;;;;;;5128178;28;19999;-71
2023/11/01 09:33:03;;;;;;;;;;;;;;;;;;5126112;28;19919;-70
2023/11/01 09:35:29;;;;;;;;;;;;;;;;;;5127757;28;19912;-70
2023/11/01 09:37:55;;;;;;;;;;;;;;;;;;5128052;28;19907;-71
2023/11/01 09:40:21;;;;;;;;;;;;;;;;;;5104573;28;19922;-70
2023/11/01 09:42:48;;;;;;;;;;;;;;;;;;5125007;28;19908;-70
2023/11/01 09:45:13;;;;;;;;;;;;;;;;;;5128480;28;19919;-71
2023/11/01 09:47:41;;;;;;;;;;;;;;;;;;5128873;28;20401;-72
2023/11/01 09:50:07;;;;;;;;;;;;;;;;;;5129770;27;19914;-70
2023/11/01 09:52:35;;;;;;;;;;;;;;;;;;5127919;28;20044;-68
2023/11/01 09:55:02;;;;;;;;;;;;;;;;;;5128072;27;19930;-70
2023/11/01 09:57:28;;;;;;;;;;;;;;;;;;5118495;27;19916;-71
2023/11/01 09:59:54;;;;;;;;;;;;;;;;;;5115835;28;19914;-71
2023/11/01 10:02:20;;;;;;;;;;;;;;;;;;5115062;28;19951;-72
2023/11/01 10:04:46;;;;;;;;;;;;;;;;;;5115347;28;20362;-70
2023/11/01 10:07:12;;;;;;;;;;;;;;;;;;5114532;28;19983;-71
2023/11/01 10:09:38;;;;;;;;;;;;;;;;;;5110527;28;19916;-70
2023/11/01 10:12:08;;;;;;;;;;;;;;;;;;5112574;28;19912;-71
2023/11/01 10:14:34;;;;;;;;;;;;;;;;;;5093341;28;19912;-71
2023/11/01 10:17:00;;;;;;;;;;;;;;;;;;5100496;28;19912;-71
2023/11/01 10:19:26;;;;;;;;;;;;;;;;;;5114211;28;20391;-69
2023/11/01 10:21:52;;;;;;;;;;;;;;;;;;5114244;28;19912;-69
2023/11/01 10:24:18;;;;;;;;;;;;;;;;;;5113662;28;20291;-71
2023/11/01 10:26:43;;;;;;;;;;;;;;;;;;5110487;28;19912;-71
2023/11/01 10:29:10;;;;;;;;;;;;;;;;;;5112882;28;19915;-69
2023/11/01 10:31:37;;;;;;;;;;;;;;;;;;5112875;28;19919;-71
2023/11/01 10:34:06;;;;;;;;;;;;;;;;;;5111587;28;19908;-70
2023/11/01 10:36:32;;;;;;;;;;;;;;;;;;5112551;28;19916;-70
2023/11/01 10:38:58;;;;;;;;;;;;;;;;;;5114679;28;20279;-74
2023/11/01 10:41:24;;;;;;;;;;;;;;;;;;5113045;28;20367;-72
2023/11/01 10:43:50;;;;;;;;;;;;;;;;;;5114722;28;19969;-71
2023/11/01 10:46:16;;;;;;;;;;;;;;;;;;5113993;28;19966;-71
2023/11/01 10:48:42;;;;;;;;;;;;;;;;;;5114144;28;19912;-70
2023/11/01 10:51:08;;;;;;;;;;;;;;;;;;5113636;28;20003;-70
2023/11/01 10:53:35;;;;;;;;;;;;;;;;;;5111647;28;19912;-70
2023/11/01 10:56:03;;;;;;;;;;;;;;;;;;5111380;28;19911;-71
2023/11/01 10:58:29;;;;;;;;;;;;;;;;;;5109661;28;19918;-70
2023/11/01 11:00:55;;;;;;;;;;;;;;;;;;5112271;28;19915;-70
2023/11/01 11:03:21;;;;;;;;;;;;;;;;;;5113169;28;19915;-70
2023/11/01 11:05:47;;;;;;;;;;;;;;;;;;5113457;28;20260;-70
2023/11/01 11:08:13;;;;;;;;;;;;;;;;;;5112746;28;20002;-73
2023/11/01 11:10:39;;;;;;;;;;;;;;;;;;5093970;28;19908;-71
2023/11/01 11:13:05;;;;;;;;;;;;;;;;;;5109837;28;20325;-72
2023/11/01 11:15:31;;;;;;;;;;;;;;;;;;5113980;28;20006;-71
2023/11/01 11:17:57;;;;;;;;;;;;;;;;;;5114402;28;19908;-71
2023/11/01 11:20:23;;;;;;;;;;;;;;;;;;5114330;28;20003;-70
2023/11/01 11:22:54;;;;;;;;;;;;;;;;;;5106854;28;19914;-70
2023/11/01 11:25:20;;;;;;;;;;;;;;;;;;5111809;28;19919;-71
2023/11/01 11:27:49;;;;;;;;;;;;;;;;;;5112675;28;20422;-71
2023/11/01 11:30:15;;;;;;;;;;;;;;;;;;5112252;28;20295;-71
2023/11/01 11:32:41;;;;;;;;;;;;;;;;;;5112309;28;19908;-71
2023/11/01 11:35:07;;;;;;;;;;;;;;;;;;5110683;28;19907;-71
2023/11/01 11:37:33;;;;;;;;;;;;;;;;;;5113579;28;19912;-71
2023/11/01 11:39:59;;;;;;;;;;;;;;;;;;5112949;28;20014;-71
2023/11/01 11:42:25;;;;;;;;;;;;;;;;;;5113468;28;19908;-71
2023/11/01 11:44:50;;;;;;;;;;;;;;;;;;5113004;28;19920;-70
2023/11/01 11:47:16;;;;;;;;;;;;;;;;;;5110281;28;19915;-71
2023/11/01 11:49:42;;;;;;;;;;;;;;;;;;5128086;27;19964;-70
2023/11/01 11:52:15;;;;;;;;;;;;;;;;;;5134468;27;19907;-71
2023/11/01 11:54:41;;;;;;;;;;;;;;;;;;5133862;27;20023;-71
2023/11/01 11:57:08;;;;;;;;;;;;;;;;;;5134561;27;19954;-71
2023/11/01 11:59:34;;;;;;;;;;;;;;;;;;5133516;27;19909;-71
2023/11/01 12:02:00;;;;;;;;;;;;;;;;;;5134189;27;20422;-71
2023/11/01 12:04:26;;;;;;;;;;;;;;;;;;5133082;27;20292;-72
2023/11/01 12:06:54;;;;;;;;;;;;;;;;;;5132894;27;19922;-71
2023/11/01 12:09:20;;;;;;;;;;;;;;;;;;5132570;27;20039;-71
2023/11/01 12:11:45;;;;;;;;;;;;;;;;;;5133065;27;19994;-71
2023/11/01 12:14:11;;;;;;;;;;;;;;;;;;5132715;27;19964;-71
2023/11/01 12:16:38;;;;;;;;;;;;;;;;;;5131590;27;19914;-71
2023/11/01 12:19:05;;;;;;;;;;;;;;;;;;5133478;27;19908;-72
2023/11/01 12:21:31;;;;;;;;;;;;;;;;;;5132550;27;19908;-71
2023/11/01 12:23:57;;;;;;;;;;;;;;;;;;5108507;28;19919;-75
2023/11/01 12:26:23;;;;;;;;;;;;;;;;;;5113693;28;19963;-75
2023/11/01 12:28:49;;;;;;;;;;;;;;;;;;5111731;28;19946;-75
2023/11/01 12:31:15;;;;;;;;;;;;;;;;;;5112119;28;19965;-75
2023/11/01 12:33:41;;;;;;;;;;;;;;;;;;5112789;28;20290;-74
2023/11/01 12:36:08;;;;;;;;;;;;;;;;;;5111017;28;19926;-75
2023/11/01 12:38:34;;;;;;;;;;;;;;;;;;5113349;28;20059;-76
2023/11/01 12:41:02;;;;;;;;;;;;;;;;;;5113732;28;20391;-76
2023/11/01 12:43:28;;;;;;;;;;;;;;;;;;5113419;28;20003;-80
2023/11/01 12:45:54;;;;;;;;;;;;;;;;;;5113484;28;20018;-80
2023/11/01 12:48:21;;;;;;;;;;;;;;;;;;5114309;28;19917;-81
2023/11/01 12:50:47;;;;;;;;;;;;;;;;;;5113622;28;19954;-80
2023/11/01 12:53:14;;;;;;;;;;;;;;;;;;5114005;28;19965;-78
2023/11/01 12:55:40;;;;;;;;;;;;;;;;;;5113708;28;19919;-79
2023/11/01 12:58:07;;;;;;;;;;;;;;;;;;5113331;28;19912;-78
2023/11/01 13:00:33;;;;;;;;;;;;;;;;;;5113621;28;20006;-79
2023/11/01 13:03:01;;;;;;;;;;;;;;;;;;5111393;28;19951;-76
2023/11/01 13:05:27;;;;;;;;;;;;;;;;;;5113339;28;19982;-79
2023/11/01 13:07:56;;;;;;;;;;;;;;;;;;5113852;28;19912;-77
2023/11/01 13:10:22;;;;;;;;;;;;;;;;;;5113687;28;19912;-78
2023/11/01 13:12:48;;;;;;;;;;;;;;;;;;5111769;28;19916;-77
2023/11/01 13:15:14;;;;;;;;;;;;;;;;;;5114034;28;19908;-75
2023/11/01 13:17:40;;;;;;;;;;;;;;;;;;5113662;28;19908;-78
2023/11/01 13:20:06;;;;;;;;;;;;;;;;;;5113141;28;19937;-77
2023/11/01 13:22:32;;;;;;;;;;;;;;;;;;5111593;28;19918;-77
2023/11/01 13:24:58;;;;;;;;;;;;;;;;;;5113562;28;19912;-77
2023/11/01 13:27:24;;;;;;;;;;;;;;;;;;5112630;28;20379;-76
2023/11/01 13:29:50;;;;;;;;;;;;;;;;;;5109940;28;19912;-77
2023/11/01 13:32:16;;;;;;;;;;;;;;;;;;5113166;28;19920;-73
2023/11/01 13:34:42;;;;;;;;;;;;;;;;;;5115071;28;19915;-75
2023/11/01 13:37:08;;;;;;;;;;;;;;;;;;5115546;28;19915;-77
2023/11/01 13:39:34;;;;;;;;;;;;;;;;;;5115680;28;19912;-78
2023/11/01 13:42:00;;;;;;;;;;;;;;;;;;5116432;28;19908;-76
2023/11/01 13:44:26;;;;;;;;;;;;;;;;;;5116838;28;19915;-77
2023/11/01 13:46:52;;;;;;;;;;;;;;;;;;5115274;28;19924;-71
2023/11/01 13:49:18;;;;;;;;;;;;;;;;;;5116851;28;19941;-75
2023/11/01 13:51:44;;;;;;;;;;;;;;;;;;5117148;28;19968;-76
2023/11/01 13:54:10;;;;;;;;;;;;;;;;;;5116717;28;20348;-76
2023/11/01 13:56:36;;;;;;;;;;;;;;;;;;5117134;28;19908;-76
2023/11/01 13:59:02;;;;;;;;;;;;;;;;;;5117038;28;20364;-76
2023/11/01 14:01:28;;;;;;;;;;;;;;;;;;5116650;28;19953;-75
2023/11/01 14:03:57;;;;;;;;;;;;;;;;;;5117035;28;19916;-76
2023/11/01 14:06:23;;;;;;;;;;;;;;;;;;5117019;28;19919;-76
2023/11/01 14:08:49;;;;;;;;;;;;;;;;;;5116591;28;20256;-76
2023/11/01 14:11:15;;;;;;;;;;;;;;;;;;5117186;28;19947;-76
2023/11/01 14:13:41;;;;;;;;;;;;;;;;;;5115608;28;20028;-75
2023/11/01 14:16:07;;;;;;;;;;;;;;;;;;5116415;28;20037;-74
2023/11/01 14:18:33;;;;;;;;;;;;;;;;;;5116670;28;19930;-75
2023/11/01 14:21:02;;;;;;;;;;;;;;;;;;5116618;28;20381;-75
2023/11/01 14:23:28;;;;;;;;;;;;;;;;;;5116223;28;19908;-75
2023/11/01 14:25:54;;;;;;;;;;;;;;;;;;5116572;27;19951;-75
2023/11/01 14:28:20;;;;;;;;;;;;;;;;;;5116664;28;19930;-77
2023/11/01 14:30:47;;;;;;;;;;;;;;;;;;5116200;28;20339;-76
2023/11/01 14:33:13;;;;;;;;;;;;;;;;;;5115269;28;19920;-76
2023/11/01 14:37:48;;;;;;;;;;;;;;;;;;5152520;27;20450;-75
2023/11/01 14:40:14;;;;;;;;;;;;;;;;;;5134270;27;19919;-76
2023/11/01 14:42:40;;;;;;;;;;;;;;;;;;5152710;27;19907;-76
2023/11/01 14:48:44;;;;;;;;;;;;;;;;;;5111968;27;19916;-75
2023/11/01 14:51:10;;;;;;;;;;;;;;;;;;5110168;28;19918;-75
2023/11/01 14:53:36;;;;;;;;;;;;;;;;;;5111482;28;19951;-76
2023/11/01 14:56:02;;;;;;;;;;;;;;;;;;5111878;28;20399;-75
2023/11/01 14:58:28;;;;;;;;;;;;;;;;;;5111024;28;19912;-75
2023/11/01 15:00:56;;;;;;;;;;;;;;;;;;5110104;28;19918;-75
2023/11/01 15:03:45;;;;;;;;;;;;;;;;;;5091366;27;19916;-75
2023/11/01 15:06:11;;;;;;;;;;;;;;;;;;5090923;28;19966;-76
2023/11/01 15:08:37;;;;;;;;;;;;;;;;;;5091236;28;19908;-76
2023/11/01 15:11:04;;;;;;;;;;;;;;;;;;5090743;28;19908;-75
2023/11/01 15:13:30;;;;;;;;;;;;;;;;;;5091121;28;19908;-76
2023/11/01 15:17:37;;;;;;;;;;;;;;;;;;5091770;28;19916;-75
2023/11/01 15:21:56;;;;;;;;;;;;;;;;;;5071276;28;19923;-75
2023/11/01 15:24:22;;;;;;;;;;;;;;;;;;5071054;28;19995;-75
2023/11/01 15:26:48;;;;;;;;;;;;;;;;;;5070636;28;20000;-75
2023/11/01 15:30:57;;;;;;;;;;;;;;;;;;5091781;27;19916;-75
2023/11/01 15:33:57;;;;;;;;;;;;;;;;;;5111420;27;20368;-75
2023/11/01 15:36:23;;;;;;;;;;;;;;;;;;5111852;28;20398;-77
2023/11/01 15:41:43;;;;;;;;;;;;;;;;;;5112111;27;19916;-75
2023/11/01 15:44:09;;;;;;;;;;;;;;;;;;5110405;28;20010;-76
2023/11/01 15:47:38;;;;;;;;;;;;;;;;;;5111460;27;19916;-77
2023/11/01 15:50:04;;;;;;;;;;;;;;;;;;5110376;28;20006;-77
2023/11/01 15:52:31;;;;;;;;;;;;;;;;;;5111918;28;19908;-77
2023/11/01 15:54:57;;;;;;;;;;;;;;;;;;5111206;28;20039;-77
2023/11/01 15:58:15;;;;;;;;;;;;;;;;;;5071630;28;19919;-76
2023/11/01 16:01:07;;;;;;;;;;;;;;;;;;5111868;27;19917;-76
2023/11/01 16:03:33;;;;;;;;;;;;;;;;;;5111653;28;20007;-75
2023/11/01 16:07:53;;;;;;;;;;;;;;;;;;5111813;27;19985;-78
2023/11/01 16:10:19;;;;;;;;;;;;;;;;;;5112259;28;19999;-78
2023/11/01 16:12:45;;;;;;;;;;;;;;;;;;5111663;28;20333;-77
2023/11/01 16:17:32;;;;;;;;;;;;;;;;;;5091830;27;19923;-77
2023/11/01 16:19:58;;;;;;;;;;;;;;;;;;5091408;28;20006;-75
2023/11/01 16:22:24;;;;;;;;;;;;;;;;;;5090967;28;19914;-76
2023/11/01 16:25:12;;;;;;;;;;;;;;;;;;5092225;27;19917;-76
2023/11/01 16:28:42;;;;;;;;;;;;;;;;;;5111491;27;19916;-76
2023/11/01 16:32:52;;;;;;;;;;;;;;;;;;5071452;28;19919;-75
2023/11/01 16:35:18;;;;;;;;;;;;;;;;;;5071307;28;19912;-76
2023/11/01 16:37:45;;;;;;;;;;;;;;;;;;5071179;28;19935;-75
2023/11/01 16:40:12;;;;;;;;;;;;;;;;;;5071497;28;19916;-76
2023/11/01 16:42:37;;;;;;;;;;;;;;;;;;5070600;28;20383;-76
2023/11/01 16:48:54;;;;;;;;;;;;;;;;;;5091386;27;19923;-76
2023/11/01 16:51:20;;;;;;;;;;;;;;;;;;5090876;28;19995;-76
2023/11/01 16:53:46;;;;;;;;;;;;;;;;;;5091275;28;19951;-76
2023/11/01 16:56:12;;;;;;;;;;;;;;;;;;5091244;28;19908;-77
2023/11/01 16:59:53;;;;;;;;;;;;;;;;;;5091451;28;19916;-75
2023/11/01 17:02:19;;;;;;;;;;;;;;;;;;5091530;28;19999;-78
2023/11/01 17:04:45;;;;;;;;;;;;;;;;;;5090906;28;19915;-75
2023/11/01 17:07:11;;;;;;;;;;;;;;;;;;5091285;28;19969;-76
2023/11/01 17:10:42;;;;;;;;;;;;;;;;;;5091714;27;19916;-77
2023/11/01 17:13:49;;;;;;;;;;;;;;;;;;5092046;27;20291;-77
2023/11/01 17:16:15;;;;;;;;;;;;;;;;;;5091930;28;20014;-75
2023/11/01 17:20:25;;;;;;;;;;;;;;;;;;5112353;27;19916;-77
2023/11/01 17:25:14;;;;;;;;;;;;;;;;;;5091496;27;20307;-76
2023/11/01 17:28:09;;;;;;;;;;;;;;;;;;5091951;27;19917;-76
2023/11/01 17:30:35;;;;;;;;;;;;;;;;;;5091301;28;20325;-75
2023/11/01 17:33:01;;;;;;;;;;;;;;;;;;5090895;28;19908;-75
2023/11/01 17:35:27;;;;;;;;;;;;;;;;;;5091169;28;20006;-75
2023/11/01 17:38:42;;;;;;;;;;;;;;;;;;5111600;27;19916;-75
2023/11/01 17:41:08;;;;;;;;;;;;;;;;;;5111704;28;19919;-75
2023/11/01 17:45:27;;;;;;;;;;;;;;;;;;5091689;27;19923;-75
2023/11/01 17:47:52;;;;;;;;;;;;;;;;;;5091094;28;20002;-76
2023/11/01 17:50:19;;;;;;;;;;;;;;;;;;5090915;28;19912;-75
2023/11/01 17:52:45;;;;;;;;;;;;;;;;;;5090918;28;19912;-75
2023/11/01 17:55:16;;;;;;;;;;;;;;;;;;5089991;28;19947;-76
2023/11/01 17:58:31;;;;;;;;;;;;;;;;;;5111815;27;19912;-75
2023/11/01 18:00:57;;;;;;;;;;;;;;;;;;5111324;28;20002;-75
2023/11/01 18:05:35;;;;;;;;;;;;;;;;;;5091291;27;19916;-74
2023/11/01 18:08:01;;;;;;;;;;;;;;;;;;5091015;28;19912;-75
2023/11/01 18:10:27;;;;;;;;;;;;;;;;;;5091178;28;19912;-75
2023/11/01 18:16:39;;;;;;;;;;;;;;;;;;5111605;27;19916;-73
2023/11/01 18:19:46;;;;;;;;;;;;;;;;;;5132495;27;19922;-75
2023/11/01 18:22:12;;;;;;;;;;;;;;;;;;5131830;27;20002;-76